Time;durP1;ratioP1;P1;durP2;ratioP2;P2;SDS_P1;SDS_P2;PMS_P1;PMS_P2;Temp;Humidity;BMP_temperature;BMP_pressure;BME280_temperature;BME280_humidity;BME280_pressure;Samples;Min_cycle;Max_cycle;Signal;HPM_P1;HPM_P2
2021/11/26 00:00:59;;;;;;;16.40;9.03;;;4.70;99.90;;;;;;5075175;28;20692;-74
2021/11/26 00:03:26;;;;;;;22.17;11.00;;;4.60;99.90;;;;;;5074895;28;20148;-74
2021/11/26 00:05:53;;;;;;;17.70;11.10;;;4.70;99.90;;;;;;5075124;28;20139;-73
2021/11/26 00:08:20;;;;;;;15.60;9.77;;;4.70;99.90;;;;;;5075260;28;20051;-73
2021/11/26 00:10:50;;;;;;;18.17;10.50;;;4.60;99.90;;;;;;5075212;28;20052;-73
2021/11/26 00:13:17;;;;;;;16.10;8.23;;;4.60;99.90;;;;;;5074765;28;20125;-75
2021/11/26 00:15:44;;;;;;;16.80;11.03;;;4.70;99.90;;;;;;5075142;28;20090;-74
2021/11/26 00:18:19;;;;;;;20.27;9.00;;;4.60;99.90;;;;;;5075137;28;20049;-74
2021/11/26 00:20:48;;;;;;;15.33;9.17;;;4.70;99.90;;;;;;5075025;28;20459;-75
2021/11/26 00:23:16;;;;;;;16.17;10.30;;;4.70;99.90;;;;;;5074634;28;20471;-76
2021/11/26 00:25:44;;;;;;;15.37;8.60;;;4.70;99.90;;;;;;5074905;28;20143;-74
2021/11/26 00:28:11;;;;;;;20.63;10.13;;;4.60;99.90;;;;;;5074706;28;20048;-74
2021/11/26 00:30:37;;;;;;;22.70;11.10;;;4.60;99.90;;;;;;5074745;28;20121;-75
2021/11/26 00:33:04;;;;;;;13.80;8.63;;;4.60;99.90;;;;;;5074764;28;20126;-75
2021/11/26 00:35:33;;;;;;;14.10;9.10;;;4.60;99.90;;;;;;5074418;28;20040;-73
2021/11/26 00:38:00;;;;;;;21.80;10.13;;;4.60;99.90;;;;;;5074510;28;20076;-76
2021/11/26 00:40:27;;;;;;;20.47;11.07;;;4.60;99.90;;;;;;5074725;28;20051;-75
2021/11/26 00:42:54;;;;;;;21.87;10.67;;;4.60;99.90;;;;;;5074548;28;20135;-75
2021/11/26 00:45:22;;;;;;;15.30;9.07;;;4.60;99.90;;;;;;5074008;28;20052;-76
2021/11/26 00:47:48;;;;;;;13.17;8.57;;;4.60;99.90;;;;;;5074658;28;20361;-76
2021/11/26 00:50:17;;;;;;;17.13;9.53;;;4.60;99.90;;;;;;5075622;28;20044;-74
2021/11/26 00:52:46;;;;;;;18.37;9.93;;;4.60;99.90;;;;;;5075020;28;20420;-75
2021/11/26 00:55:13;;;;;;;21.77;10.43;;;4.60;99.90;;;;;;5074159;28;20127;-75
2021/11/26 00:57:41;;;;;;;14.50;9.77;;;4.60;99.90;;;;;;5074064;28;20568;-75
2021/11/26 01:00:10;;;;;;;13.53;10.57;;;4.60;99.90;;;;;;5072948;28;20040;-75
2021/11/26 01:02:38;;;;;;;15.03;8.37;;;4.70;99.90;;;;;;5073916;28;20076;-74
2021/11/26 01:05:06;;;;;;;16.23;10.73;;;4.60;99.90;;;;;;5073605;28;20045;-73
2021/11/26 01:07:33;;;;;;;17.73;8.60;;;4.60;99.90;;;;;;5074291;28;20044;-75
2021/11/26 01:10:02;;;;;;;18.80;9.90;;;4.60;99.90;;;;;;5074196;28;20072;-75
2021/11/26 01:12:29;;;;;;;19.30;9.40;;;4.60;99.90;;;;;;5073998;28;20591;-75
2021/11/26 01:14:56;;;;;;;15.50;8.63;;;4.60;99.90;;;;;;5073580;28;20102;-75
2021/11/26 01:17:23;;;;;;;13.77;7.57;;;4.60;99.90;;;;;;5073800;28;20127;-76
2021/11/26 01:19:50;;;;;;;16.70;9.17;;;4.60;99.90;;;;;;5073970;28;20110;-75
2021/11/26 01:22:17;;;;;;;17.27;11.07;;;4.60;99.90;;;;;;5074150;28;20068;-74
2021/11/26 01:24:44;;;;;;;13.70;8.60;;;4.60;99.90;;;;;;5073065;28;20501;-74
2021/11/26 01:27:12;;;;;;;15.03;9.47;;;4.60;99.90;;;;;;5073666;28;20571;-74
2021/11/26 01:29:39;;;;;;;17.40;7.93;;;4.60;99.90;;;;;;5073876;28;20044;-75
2021/11/26 01:32:07;;;;;;;15.50;8.73;;;4.60;99.90;;;;;;5073688;28;20087;-74
2021/11/26 01:34:35;;;;;;;18.43;9.30;;;4.60;99.90;;;;;;5073518;28;20139;-74
2021/11/26 01:37:02;;;;;;;16.97;9.17;;;4.50;99.90;;;;;;5073569;28;20048;-75
2021/11/26 01:39:29;;;;;;;14.67;8.83;;;4.60;99.90;;;;;;5073655;28;20131;-75
2021/11/26 01:41:56;;;;;;;18.17;10.23;;;4.60;99.90;;;;;;5073728;28;20072;-74
2021/11/26 01:44:24;;;;;;;18.50;9.40;;;4.60;99.90;;;;;;5073015;28;20076;-74
2021/11/26 01:46:51;;;;;;;10.07;7.77;;;4.60;99.90;;;;;;5073579;28;20052;-75
2021/11/26 01:49:18;;;;;;;23.07;11.30;;;4.60;99.90;;;;;;5073458;28;20558;-74
2021/11/26 01:51:45;;;;;;;12.23;7.53;;;4.60;99.90;;;;;;5073378;28;20132;-74
2021/11/26 01:54:12;;;;;;;14.20;7.77;;;4.60;99.90;;;;;;5072663;28;20132;-76
2021/11/26 01:56:40;;;;;;;17.43;8.43;;;4.60;99.90;;;;;;5073088;28;20094;-74
2021/11/26 01:59:07;;;;;;;15.17;8.03;;;4.60;99.90;;;;;;5073004;28;20044;-74
2021/11/26 02:01:35;;;;;;;15.77;8.57;;;4.60;99.90;;;;;;5072822;28;20098;-75
2021/11/26 02:04:03;;;;;;;19.40;8.47;;;4.60;99.90;;;;;;5071412;28;20045;-75
2021/11/26 02:06:30;;;;;;;13.80;8.67;;;4.50;99.90;;;;;;5073314;28;20139;-75
2021/11/26 02:08:57;;;;;;;19.47;9.17;;;4.50;99.90;;;;;;5072988;28;20078;-76
2021/11/26 02:11:24;;;;;;;17.43;7.87;;;4.60;99.90;;;;;;5072470;28;20082;-75
2021/11/26 02:13:51;;;;;;;14.97;7.33;;;4.60;99.90;;;;;;5072491;28;20107;-75
2021/11/26 02:16:18;;;;;;;20.07;8.40;;;4.60;99.90;;;;;;5072756;28;20488;-75
2021/11/26 02:18:49;;;;;;;15.70;7.57;;;4.70;99.90;;;;;;5072788;28;20106;-73
2021/11/26 02:21:18;;;;;;;19.48;8.93;;;4.60;99.90;;;;;;5072580;28;20045;-73
2021/11/26 02:23:45;;;;;;;15.43;8.00;;;4.60;99.90;;;;;;5072043;28;20155;-74
2021/11/26 02:26:12;;;;;;;17.80;9.40;;;4.60;99.90;;;;;;5072228;28;20135;-74
2021/11/26 02:28:41;;;;;;;16.43;8.23;;;4.60;99.90;;;;;;5072647;28;20439;-74
2021/11/26 02:31:08;;;;;;;12.80;9.47;;;4.60;99.90;;;;;;5072391;28;20109;-76
2021/11/26 02:33:35;;;;;;;12.90;8.10;;;4.60;99.90;;;;;;5072115;28;20106;-76
2021/11/26 02:36:02;;;;;;;11.53;7.83;;;4.50;99.90;;;;;;5072344;28;20140;-76
2021/11/26 02:38:31;;;;;;;15.77;7.67;;;4.60;99.90;;;;;;5072357;28;20137;-76
2021/11/26 02:40:58;;;;;;;20.53;9.30;;;4.60;99.90;;;;;;5072370;28;20449;-75
2021/11/26 02:43:25;;;;;;;13.80;8.87;;;4.60;99.90;;;;;;5071945;28;20402;-76
2021/11/26 02:45:52;;;;;;;16.87;8.40;;;4.50;99.90;;;;;;5072057;28;20463;-75
2021/11/26 02:48:19;;;;;;;15.03;8.37;;;4.60;99.90;;;;;;5072202;28;20090;-74
2021/11/26 02:50:48;;;;;;;11.40;6.90;;;4.60;99.90;;;;;;5072003;28;20131;-75
2021/11/26 02:53:15;;;;;;;17.73;9.27;;;4.50;99.90;;;;;;5071482;28;20068;-75
2021/11/26 02:55:44;;;;;;;14.20;8.07;;;4.50;99.90;;;;;;5072254;28;20380;-74
2021/11/26 02:58:12;;;;;;;14.47;8.27;;;4.60;99.90;;;;;;5072204;28;20102;-76
2021/11/26 03:00:41;;;;;;;14.57;8.17;;;4.60;99.90;;;;;;5070629;28;20134;-75
2021/11/26 03:03:08;;;;;;;20.00;10.03;;;4.50;99.90;;;;;;5071302;28;20095;-76
2021/11/26 03:05:35;;;;;;;17.07;9.43;;;4.50;99.90;;;;;;5071723;28;20095;-75
2021/11/26 03:08:02;;;;;;;19.13;8.77;;;4.50;99.90;;;;;;5071831;28;20587;-75
2021/11/26 03:10:30;;;;;;;14.70;8.50;;;4.50;99.90;;;;;;5071851;28;20093;-75
2021/11/26 03:13:01;;;;;;;14.37;7.87;;;4.50;99.90;;;;;;5071959;28;20091;-75
2021/11/26 03:15:29;;;;;;;18.02;7.90;;;4.50;99.90;;;;;;5071459;28;20056;-74
2021/11/26 03:17:57;;;;;;;14.07;8.50;;;4.50;99.90;;;;;;5071925;28;20040;-74
2021/11/26 03:20:25;;;;;;;18.23;8.77;;;4.50;99.90;;;;;;5071821;28;20048;-75
2021/11/26 03:22:52;;;;;;;15.30;9.17;;;4.60;99.90;;;;;;5071117;28;20083;-74
2021/11/26 03:25:20;;;;;;;21.43;8.73;;;4.60;99.90;;;;;;5071265;28;20057;-74
2021/11/26 03:27:47;;;;;;;17.63;8.33;;;4.60;99.90;;;;;;5071861;28;20090;-74
2021/11/26 03:30:18;;;;;;;20.50;9.10;;;4.60;99.90;;;;;;5071578;28;20067;-73
2021/11/26 03:32:46;;;;;;;15.85;8.10;;;4.50;99.90;;;;;;5071585;28;20049;-75
2021/11/26 03:35:14;;;;;;;12.03;8.10;;;4.50;99.90;;;;;;5071137;28;20048;-74
2021/11/26 03:37:41;;;;;;;16.20;9.13;;;4.50;99.90;;;;;;5071615;28;20076;-74
2021/11/26 03:40:11;;;;;;;18.60;8.50;;;4.60;99.90;;;;;;5071736;28;20056;-75
2021/11/26 03:42:38;;;;;;;16.07;8.23;;;4.60;99.90;;;;;;5071546;28;20044;-74
2021/11/26 03:45:08;;;;;;;18.00;8.77;;;4.60;99.90;;;;;;5071066;28;20084;-73
2021/11/26 03:47:37;;;;;;;13.23;8.33;;;4.50;99.90;;;;;;5071801;28;20131;-73
2021/11/26 03:50:05;;;;;;;14.17;7.70;;;4.60;99.90;;;;;;5071289;28;20527;-74
2021/11/26 03:52:33;;;;;;;16.93;8.80;;;4.50;99.90;;;;;;5071706;28;20098;-74
2021/11/26 03:55:00;;;;;;;19.93;8.67;;;4.50;99.90;;;;;;5070774;28;20508;-75
2021/11/26 03:57:27;;;;;;;12.17;8.77;;;4.70;99.90;;;;;;5071456;28;20519;-74
2021/11/26 03:59:53;;;;;;;15.07;7.13;;;4.60;99.90;;;;;;5071118;28;20048;-75
2021/11/26 04:02:20;;;;;;;17.57;8.57;;;4.50;99.90;;;;;;5071537;28;20045;-75
2021/11/26 04:04:49;;;;;;;15.70;8.50;;;4.60;99.90;;;;;;5070905;28;20090;-74
2021/11/26 04:07:16;;;;;;;18.57;8.47;;;4.60;99.90;;;;;;5071262;28;20588;-72
2021/11/26 04:09:43;;;;;;;19.73;9.33;;;4.60;99.90;;;;;;5071206;28;20139;-75
2021/11/26 04:12:10;;;;;;;14.23;7.47;;;4.50;99.90;;;;;;5071225;28;20181;-74
2021/11/26 04:14:37;;;;;;;16.97;7.00;;;4.50;99.90;;;;;;5070619;28;20045;-74
2021/11/26 04:17:06;;;;;;;12.87;7.43;;;4.50;99.90;;;;;;5071329;28;20056;-74
2021/11/26 04:19:33;;;;;;;25.27;9.00;;;4.50;99.90;;;;;;5071474;28;20132;-75
2021/11/26 04:22:02;;;;;;;20.10;9.60;;;4.60;99.90;;;;;;5071228;28;20503;-75
2021/11/26 04:24:29;;;;;;;18.10;9.03;;;4.60;99.90;;;;;;5070631;28;20098;-74
2021/11/26 04:26:56;;;;;;;14.20;7.80;;;4.60;99.90;;;;;;5070927;28;20151;-74
2021/11/26 04:29:23;;;;;;;13.17;7.77;;;4.50;99.90;;;;;;5071472;28;20045;-76
2021/11/26 04:31:49;;;;;;;12.33;7.57;;;4.50;99.90;;;;;;5070950;28;20551;-76
2021/11/26 04:34:16;;;;;;;11.60;6.93;;;4.60;99.90;;;;;;5070884;28;20048;-76
2021/11/26 04:36:44;;;;;;;10.50;7.43;;;4.50;99.90;;;;;;5074841;28;20458;-75
2021/11/26 04:39:12;;;;;;;27.50;8.03;;;4.60;99.90;;;;;;5074591;28;20050;-75
2021/11/26 04:41:39;;;;;;;22.97;9.67;;;4.50;99.90;;;;;;5074496;28;20048;-74
2021/11/26 04:44:06;;;;;;;16.63;8.57;;;4.50;99.90;;;;;;5074145;28;20041;-73
2021/11/26 04:46:33;;;;;;;12.33;8.93;;;4.50;99.90;;;;;;5074774;28;20413;-74
2021/11/26 04:49:04;;;;;;;17.87;9.87;;;4.50;99.90;;;;;;5074191;28;20122;-74
2021/11/26 04:51:32;;;;;;;10.50;7.17;;;4.60;99.90;;;;;;5074300;28;20055;-74
2021/11/26 04:53:59;;;;;;;11.93;7.10;;;4.50;99.90;;;;;;5073924;28;20480;-73
2021/11/26 04:56:27;;;;;;;15.60;9.33;;;4.60;99.90;;;;;;5074212;28;20072;-74
2021/11/26 04:58:54;;;;;;;11.03;8.20;;;4.60;99.90;;;;;;5074026;28;20080;-74
2021/11/26 05:01:21;;;;;;;18.70;9.37;;;4.60;99.90;;;;;;5074121;28;20072;-74
2021/11/26 05:03:51;;;;;;;19.67;8.93;;;4.60;99.90;;;;;;5073786;28;20452;-73
2021/11/26 05:06:18;;;;;;;13.73;6.53;;;4.50;99.90;;;;;;5074157;28;20053;-73
2021/11/26 05:08:45;;;;;;;22.43;9.17;;;4.60;99.90;;;;;;5073950;28;20040;-73
2021/11/26 05:11:12;;;;;;;19.63;9.67;;;4.60;99.90;;;;;;5074027;28;20051;-74
2021/11/26 05:13:43;;;;;;;16.47;7.67;;;4.60;99.90;;;;;;5073790;28;20045;-74
2021/11/26 05:16:13;;;;;;;16.48;8.90;;;4.60;99.90;;;;;;5074189;28;20113;-73
2021/11/26 05:18:40;;;;;;;11.57;8.33;;;4.60;99.90;;;;;;5074006;28;20428;-73
2021/11/26 05:21:07;;;;;;;11.57;7.23;;;4.60;99.90;;;;;;5073840;28;20152;-74
2021/11/26 05:23:34;;;;;;;10.70;7.00;;;4.60;99.90;;;;;;5074588;28;20044;-74
2021/11/26 05:26:01;;;;;;;13.00;7.53;;;4.60;99.90;;;;;;5073712;28;20493;-74
2021/11/26 05:28:28;;;;;;;18.13;9.33;;;4.60;99.90;;;;;;5073921;28;20443;-75
2021/11/26 05:30:56;;;;;;;11.70;7.30;;;4.60;99.90;;;;;;5073725;28;20552;-75
2021/11/26 05:33:23;;;;;;;13.53;7.87;;;4.60;99.90;;;;;;5073374;28;20094;-75
2021/11/26 05:35:50;;;;;;;13.90;7.83;;;4.60;99.90;;;;;;5073754;28;20080;-74
2021/11/26 05:38:18;;;;;;;18.53;7.83;;;4.60;99.90;;;;;;5073791;28;20132;-74
2021/11/26 05:40:46;;;;;;;22.27;7.63;;;4.60;99.90;;;;;;5073594;28;20044;-73
2021/11/26 05:43:13;;;;;;;15.70;7.67;;;4.60;99.90;;;;;;5073169;28;20048;-74
2021/11/26 05:45:40;;;;;;;17.60;7.00;;;4.60;99.90;;;;;;5073783;28;20044;-74
2021/11/26 05:48:08;;;;;;;8.87;6.57;;;4.60;99.90;;;;;;5075741;28;20498;-74
2021/11/26 05:50:36;;;;;;;15.17;7.37;;;4.60;99.90;;;;;;5076379;28;20048;-75
2021/11/26 05:53:03;;;;;;;8.70;5.80;;;4.60;99.90;;;;;;5077475;28;20049;-74
2021/11/26 05:55:31;;;;;;;16.83;7.30;;;4.60;99.90;;;;;;5076092;28;20079;-75
2021/11/26 05:57:59;;;;;;;14.07;7.83;;;4.60;99.90;;;;;;5073088;28;20052;-75
2021/11/26 06:00:28;;;;;;;12.70;6.57;;;4.60;99.90;;;;;;5073019;28;20102;-75
2021/11/26 06:02:55;;;;;;;12.90;7.93;;;4.50;99.90;;;;;;5072739;28;20131;-74
2021/11/26 06:05:24;;;;;;;13.87;7.53;;;4.60;99.90;;;;;;5073817;28;20072;-75
2021/11/26 06:07:51;;;;;;;9.63;5.90;;;4.60;99.90;;;;;;5073634;28;20083;-73
2021/11/26 06:10:18;;;;;;;12.17;7.07;;;4.60;99.90;;;;;;5072645;28;20497;-75
2021/11/26 06:12:47;;;;;;;12.57;7.53;;;4.70;99.90;;;;;;5072871;28;20127;-75
2021/11/26 06:15:16;;;;;;;17.60;7.03;;;4.70;99.90;;;;;;5072226;28;20105;-74
2021/11/26 06:17:44;;;;;;;12.67;7.13;;;4.60;99.90;;;;;;5073287;28;20080;-75
2021/11/26 06:20:13;;;;;;;12.73;7.43;;;4.60;99.90;;;;;;5072772;28;20071;-75
2021/11/26 06:22:42;;;;;;;9.60;6.57;;;4.60;99.90;;;;;;5072666;28;20102;-75
2021/11/26 06:25:10;;;;;;;15.53;7.97;;;4.60;99.90;;;;;;5072083;28;20052;-74
2021/11/26 06:27:38;;;;;;;11.33;6.57;;;4.60;99.90;;;;;;5072469;28;20049;-75
2021/11/26 06:30:06;;;;;;;17.43;8.80;;;4.50;99.90;;;;;;5072556;28;20102;-75
2021/11/26 06:32:33;;;;;;;15.87;8.10;;;4.60;99.90;;;;;;5072674;28;20068;-73
2021/11/26 06:35:00;;;;;;;16.33;7.60;;;4.50;99.90;;;;;;5071956;28;20044;-73
2021/11/26 06:37:27;;;;;;;12.73;7.03;;;4.60;99.90;;;;;;5072189;28;20053;-73
2021/11/26 06:39:55;;;;;;;9.90;6.30;;;4.60;99.90;;;;;;5073322;28;20346;-72
2021/11/26 06:42:22;;;;;;;19.53;7.63;;;4.60;99.90;;;;;;5071578;28;20105;-74
2021/11/26 06:44:51;;;;;;;16.03;6.93;;;4.60;99.90;;;;;;5071639;28;20493;-74
2021/11/26 06:47:18;;;;;;;9.10;4.67;;;4.60;99.90;;;;;;5072138;28;20074;-74
2021/11/26 06:49:45;;;;;;;11.07;6.47;;;4.60;99.90;;;;;;5072118;28;20044;-74
2021/11/26 06:52:12;;;;;;;12.30;6.17;;;4.60;99.90;;;;;;5072038;28;20045;-73
2021/11/26 06:54:39;;;;;;;13.83;7.33;;;4.60;99.90;;;;;;5071368;28;20041;-74
2021/11/26 06:57:07;;;;;;;9.60;5.47;;;4.60;99.90;;;;;;5072032;28;20128;-74
2021/11/26 06:59:34;;;;;;;13.63;5.90;;;4.60;99.90;;;;;;5071353;28;20041;-75
2021/11/26 07:02:01;;;;;;;6.83;5.43;;;4.60;99.90;;;;;;5072068;28;20048;-74
2021/11/26 07:04:29;;;;;;;10.77;5.43;;;4.60;99.90;;;;;;5071556;28;20045;-74
2021/11/26 07:06:56;;;;;;;7.90;6.10;;;4.60;99.90;;;;;;5071773;28;20045;-75
2021/11/26 07:09:23;;;;;;;8.00;4.87;;;4.70;99.90;;;;;;5071816;28;20135;-74
2021/11/26 07:11:50;;;;;;;11.33;4.80;;;4.60;99.90;;;;;;5071941;28;20090;-73
2021/11/26 07:14:18;;;;;;;11.17;5.43;;;4.60;99.90;;;;;;5071595;28;20051;-75
2021/11/26 07:16:45;;;;;;;14.73;5.57;;;4.60;99.90;;;;;;5071718;28;20493;-73
2021/11/26 07:19:12;;;;;;;13.13;5.90;;;4.70;99.90;;;;;;5071553;28;20140;-73
2021/11/26 07:21:39;;;;;;;10.57;5.57;;;4.70;99.90;;;;;;5071647;28;20055;-73
2021/11/26 07:24:06;;;;;;;14.40;5.37;;;4.60;99.90;;;;;;5070929;28;20080;-73
2021/11/26 07:26:33;;;;;;;8.43;5.53;;;4.70;99.90;;;;;;5071760;28;20064;-74
2021/11/26 07:29:00;;;;;;;6.53;4.60;;;4.60;99.90;;;;;;5071631;28;20056;-73
2021/11/26 07:31:28;;;;;;;15.90;6.47;;;4.60;99.90;;;;;;5071729;28;20554;-75
2021/11/26 07:33:55;;;;;;;11.10;6.87;;;4.70;99.90;;;;;;5071222;28;20040;-75
2021/11/26 07:36:22;;;;;;;18.30;6.57;;;4.70;99.90;;;;;;5071446;28;20462;-74
2021/11/26 07:38:49;;;;;;;11.20;5.70;;;4.60;99.90;;;;;;5071421;28;20089;-76
2021/11/26 07:41:16;;;;;;;11.73;6.17;;;4.70;99.90;;;;;;5071655;28;20049;-76
2021/11/26 07:43:43;;;;;;;11.67;4.80;;;4.60;99.90;;;;;;5070962;28;20485;-74
2021/11/26 07:46:10;;;;;;;11.63;5.37;;;4.60;99.90;;;;;;5073083;28;20090;-75
2021/11/26 07:48:38;;;;;;;13.20;6.37;;;4.70;99.90;;;;;;5071670;28;20139;-75
2021/11/26 07:51:05;;;;;;;8.17;5.17;;;4.70;99.90;;;;;;5071316;28;20067;-75
2021/11/26 07:53:32;;;;;;;12.60;6.10;;;4.70;99.90;;;;;;5071331;28;20131;-75
2021/11/26 07:55:59;;;;;;;11.97;4.87;;;4.70;99.90;;;;;;5071504;28;20501;-76
2021/11/26 07:58:26;;;;;;;10.20;6.13;;;4.70;99.90;;;;;;5071479;28;20045;-76
2021/11/26 08:00:53;;;;;;;14.43;6.10;;;4.80;99.90;;;;;;5071228;28;20588;-75
2021/11/26 08:03:21;;;;;;;11.67;5.73;;;4.70;99.90;;;;;;5070651;28;20079;-74
2021/11/26 08:05:50;;;;;;;8.80;7.00;;;4.70;99.90;;;;;;5071848;28;20052;-73
2021/11/26 08:08:17;;;;;;;13.97;7.03;;;4.70;99.90;;;;;;5071293;28;20098;-73
2021/11/26 08:10:44;;;;;;;12.57;6.80;;;4.60;99.90;;;;;;5074007;28;20094;-73
2021/11/26 08:13:12;;;;;;;13.90;6.73;;;4.70;99.90;;;;;;5074689;28;20044;-74
2021/11/26 08:15:39;;;;;;;10.53;6.70;;;4.70;99.90;;;;;;5075104;28;20057;-73
2021/11/26 08:18:08;;;;;;;11.87;6.17;;;4.80;99.90;;;;;;5074670;28;20091;-74
2021/11/26 08:20:36;;;;;;;9.50;5.63;;;4.80;99.90;;;;;;5074783;28;20551;-73
2021/11/26 08:23:06;;;;;;;10.40;5.63;;;4.80;99.90;;;;;;5075047;28;20071;-73
2021/11/26 08:25:34;;;;;;;10.20;6.00;;;4.80;99.90;;;;;;5074666;28;20044;-74
2021/11/26 08:28:03;;;;;;;10.93;6.03;;;4.70;99.90;;;;;;5074815;28;20594;-75
2021/11/26 08:30:30;;;;;;;11.77;5.90;;;4.70;99.90;;;;;;5074530;28;20087;-75
2021/11/26 08:32:57;;;;;;;14.70;5.93;;;4.70;99.90;;;;;;5074545;28;20173;-74
2021/11/26 08:35:25;;;;;;;9.00;4.33;;;4.80;99.90;;;;;;5074371;28;20048;-75
2021/11/26 08:37:53;;;;;;;11.20;5.30;;;4.80;99.90;;;;;;5074820;28;20139;-75
2021/11/26 08:40:21;;;;;;;9.03;4.90;;;4.90;99.90;;;;;;5074555;28;20150;-76
2021/11/26 08:42:49;;;;;;;5.97;4.50;;;4.90;99.90;;;;;;5074571;28;20045;-74
2021/11/26 08:45:18;;;;;;;11.10;4.93;;;5.00;99.90;;;;;;5074180;28;20483;-76
2021/11/26 08:47:45;;;;;;;7.17;4.83;;;5.00;99.90;;;;;;5074516;28;20076;-75
2021/11/26 08:50:14;;;;;;;6.90;4.40;;;5.10;99.90;;;;;;5074506;28;20127;-75
2021/11/26 08:52:42;;;;;;;6.33;3.90;;;5.10;99.90;;;;;;5074306;28;20041;-76
2021/11/26 08:55:13;;;;;;;15.30;5.73;;;5.20;99.90;;;;;;5073478;28;20485;-71
2021/11/26 08:57:49;;;;;;;10.33;4.67;;;5.20;99.90;;;;;;5074351;28;20075;-71
2021/11/26 09:00:17;;;;;;;13.93;4.83;;;5.10;99.90;;;;;;5074430;28;20049;-70
2021/11/26 09:02:44;;;;;;;11.40;4.50;;;5.10;99.90;;;;;;5074096;28;20048;-70
2021/11/26 09:05:11;;;;;;;9.03;4.00;;;5.20;99.90;;;;;;5073779;28;20076;-71
2021/11/26 09:07:38;;;;;;;12.50;5.00;;;5.20;99.90;;;;;;5074154;28;20097;-71
2021/11/26 09:10:06;;;;;;;7.80;5.40;;;5.10;99.90;;;;;;5074442;28;20053;-74
2021/11/26 09:12:33;;;;;;;6.70;5.77;;;5.10;99.90;;;;;;5074592;28;20193;-73
2021/11/26 09:15:01;;;;;;;15.40;4.37;;;5.20;99.90;;;;;;5073683;28;20074;-68
2021/11/26 09:17:28;;;;;;;8.37;4.63;;;5.40;99.90;;;;;;5073936;28;20068;-69
2021/11/26 09:19:55;;;;;;;13.77;4.47;;;5.50;99.90;;;;;;5073767;28;20109;-68
2021/11/26 09:22:22;;;;;;;11.53;6.93;;;5.50;99.90;;;;;;5072790;28;20083;-69
2021/11/26 09:24:49;;;;;;;10.37;5.87;;;5.50;99.90;;;;;;5073102;28;20075;-69
2021/11/26 09:27:16;;;;;;;9.73;5.73;;;5.70;99.90;;;;;;5073740;28;20068;-72
2021/11/26 09:29:45;;;;;;;14.00;6.70;;;5.90;99.90;;;;;;5073507;28;20531;-69
2021/11/26 09:32:14;;;;;;;11.77;5.67;;;6.00;99.90;;;;;;5073446;28;20048;-69
2021/11/26 09:34:41;;;;;;;8.73;6.20;;;5.90;99.90;;;;;;5072947;28;20102;-68
2021/11/26 09:37:08;;;;;;;10.60;5.67;;;5.80;99.90;;;;;;5073449;28;20476;-69
2021/11/26 09:39:35;;;;;;;14.50;6.50;;;5.70;99.90;;;;;;5073360;28;20508;-70
2021/11/26 09:42:02;;;;;;;15.40;6.10;;;5.70;99.90;;;;;;5073604;28;20132;-71
2021/11/26 09:44:33;;;;;;;13.87;6.77;;;5.80;99.90;;;;;;5073203;28;20072;-70
2021/11/26 09:47:00;;;;;;;13.98;8.15;;;5.90;99.90;;;;;;5073538;28;20054;-71
2021/11/26 09:49:29;;;;;;;11.00;6.70;;;5.70;99.90;;;;;;5073556;28;20056;-71
2021/11/26 09:51:57;;;;;;;13.97;7.93;;;5.70;99.90;;;;;;5073283;28;20072;-72
2021/11/26 09:54:23;;;;;;;14.60;7.37;;;5.50;99.90;;;;;;5072863;28;20078;-70
2021/11/26 09:56:51;;;;;;;16.73;9.07;;;5.40;99.90;;;;;;5074067;28;20094;-69
2021/11/26 09:59:18;;;;;;;10.73;8.10;;;5.30;99.90;;;;;;5073353;28;20067;-69
2021/11/26 10:01:45;;;;;;;14.23;6.97;;;5.50;99.90;;;;;;5072751;28;20579;-69
2021/11/26 10:04:19;;;;;;;14.73;8.07;;;5.70;99.90;;;;;;5072579;28;20048;-69
2021/11/26 10:06:48;;;;;;;15.50;8.83;;;5.80;99.90;;;;;;5072768;28;20076;-69
2021/11/26 10:09:17;;;;;;;17.10;8.07;;;5.70;99.90;;;;;;5072576;28;20098;-68
2021/11/26 10:11:50;;;;;;;11.40;8.57;;;5.80;99.90;;;;;;5072766;28;20090;-68
2021/11/26 10:14:21;;;;;;;15.60;10.03;;;5.50;99.90;;;;;;5072248;28;20094;-68
2021/11/26 10:16:50;;;;;;;13.65;7.63;;;5.60;99.90;;;;;;5073085;28;20048;-69
2021/11/26 10:19:17;;;;;;;18.20;10.07;;;5.80;99.90;;;;;;5072709;28;20068;-70
2021/11/26 10:21:45;;;;;;;21.97;9.33;;;5.80;99.90;;;;;;5073020;28;20048;-69
2021/11/26 10:24:18;;;;;;;16.13;7.90;;;5.60;99.90;;;;;;5072153;28;20105;-71
2021/11/26 10:26:54;;;;;;;18.20;8.27;;;5.40;99.90;;;;;;5072753;28;20044;-70
2021/11/26 10:29:36;;;;;;;17.27;8.37;;;5.50;99.90;;;;;;5072205;28;20044;-70
2021/11/26 10:32:05;;;;;;;16.35;9.30;;;5.60;99.90;;;;;;5072558;28;20044;-73
2021/11/26 10:34:33;;;;;;;10.37;8.27;;;5.60;99.90;;;;;;5072776;28;20122;-74
2021/11/26 10:37:00;;;;;;;13.93;8.30;;;5.60;99.90;;;;;;5072256;28;20497;-71
2021/11/26 10:39:29;;;;;;;17.33;9.93;;;5.60;99.90;;;;;;5072829;28;20576;-73
2021/11/26 10:41:59;;;;;;;18.97;9.57;;;5.60;99.90;;;;;;5072155;28;20098;-74
2021/11/26 10:44:38;;;;;;;18.77;9.73;;;5.60;99.90;;;;;;5072039;28;20068;-72
2021/11/26 10:47:13;;;;;;;16.00;7.93;;;5.90;99.90;;;;;;5072187;28;20090;-75
2021/11/26 10:49:46;;;;;;;18.20;8.90;;;5.80;99.90;;;;;;5072159;28;20121;-73
2021/11/26 10:58:15;;;;;;;23.93;9.27;;;6.00;99.90;;;;;;5072051;28;20502;-70
2021/11/26 11:00:42;;;;;;;14.18;9.27;;;6.10;99.90;;;;;;5071787;28;20135;-71
2021/11/26 11:03:09;;;;;;;15.60;7.53;;;6.10;99.90;;;;;;5071442;28;20081;-73
2021/11/26 11:05:38;;;;;;;17.27;8.40;;;6.10;99.90;;;;;;5072043;28;20094;-73
2021/11/26 11:08:19;;;;;;;12.03;8.27;;;6.00;99.90;;;;;;5071960;28;20048;-73
2021/11/26 11:10:48;;;;;;;14.70;8.02;;;5.90;99.90;;;;;;5071739;28;20055;-73
2021/11/26 11:13:17;;;;;;;21.63;9.50;;;6.00;99.90;;;;;;5070828;28;20076;-73
2021/11/26 11:15:46;;;;;;;19.80;9.03;;;6.30;99.90;;;;;;5073297;28;20117;-73
2021/11/26 11:18:14;;;;;;;14.40;6.93;;;6.70;99.90;;;;;;5084218;28;20079;-74
2021/11/26 11:20:42;;;;;;;16.73;8.93;;;6.70;99.90;;;;;;5074632;28;20435;-73
2021/11/26 11:23:09;;;;;;;14.50;8.30;;;6.50;99.90;;;;;;5071673;28;20547;-73
2021/11/26 11:25:36;;;;;;;14.37;6.67;;;6.70;99.90;;;;;;5071855;28;20040;-72
2021/11/26 11:28:08;;;;;;;13.17;8.33;;;6.70;99.90;;;;;;5071848;28;20098;-72
2021/11/26 11:30:36;;;;;;;16.60;7.67;;;6.80;99.90;;;;;;5071647;28;20548;-71
2021/11/26 11:33:03;;;;;;;13.32;6.93;;;6.70;99.90;;;;;;5071725;28;20083;-70
2021/11/26 11:35:33;;;;;;;15.60;8.70;;;6.90;99.90;;;;;;5071297;28;20457;-73
2021/11/26 11:38:01;;;;;;;14.70;7.77;;;7.00;99.90;;;;;;5071821;28;20056;-73
2021/11/26 11:40:32;;;;;;;13.23;7.30;;;6.80;99.90;;;;;;5071582;28;20048;-73
2021/11/26 11:43:14;;;;;;;18.77;6.60;;;6.60;99.90;;;;;;5071794;28;20056;-73
2021/11/26 11:45:55;;;;;;;16.53;7.33;;;6.60;99.90;;;;;;5074559;28;20098;-72
2021/11/26 11:48:27;;;;;;;18.42;8.55;;;6.50;99.90;;;;;;5075595;28;20048;-73
2021/11/26 11:50:54;;;;;;;11.20;6.70;;;6.70;99.90;;;;;;5075885;28;20048;-74
2021/11/26 11:53:31;;;;;;;13.17;7.73;;;6.70;99.90;;;;;;5075567;28;20068;-71
2021/11/26 11:56:10;;;;;;;13.20;7.13;;;6.80;99.90;;;;;;5075643;28;20041;-72
2021/11/26 11:58:48;;;;;;;13.37;7.20;;;7.00;99.90;;;;;;5075658;28;20083;-72
2021/11/26 12:01:27;;;;;;;11.80;7.83;;;7.10;99.90;;;;;;5075337;28;20143;-73
2021/11/26 12:03:57;;;;;;;15.00;6.77;;;7.20;99.90;;;;;;5075236;28;20481;-73
2021/11/26 12:06:25;;;;;;;11.93;6.50;;;7.10;99.90;;;;;;5076117;28;20052;-72
2021/11/26 12:08:55;;;;;;;12.47;6.57;;;7.00;99.90;;;;;;5075782;28;20058;-73
2021/11/26 12:11:24;;;;;;;11.60;6.60;;;6.90;99.90;;;;;;5075457;28;20048;-72
2021/11/26 12:14:01;;;;;;;18.77;7.53;;;7.00;99.90;;;;;;5075773;28;20135;-74
2021/11/26 12:16:30;;;;;;;11.70;7.07;;;7.00;99.90;;;;;;5077445;28;20048;-73
2021/11/26 12:18:57;;;;;;;12.30;7.27;;;7.10;99.90;;;;;;5077053;28;20044;-73
2021/11/26 12:21:27;;;;;;;12.20;6.77;;;7.00;99.90;;;;;;5076788;28;20075;-73
2021/11/26 12:24:06;;;;;;;10.20;6.38;;;7.20;99.90;;;;;;5074410;28;20051;-73
2021/11/26 12:26:45;;;;;;;10.70;5.63;;;7.10;99.90;;;;;;5075206;28;20094;-73
2021/11/26 12:29:13;;;;;;;10.20;7.35;;;7.00;99.90;;;;;;5074765;28;20105;-70
2021/11/26 12:31:41;;;;;;;13.90;7.13;;;6.60;99.90;;;;;;5074825;28;20072;-72
2021/11/26 12:34:11;;;;;;;11.27;6.27;;;6.30;99.90;;;;;;5074125;28;20098;-72
2021/11/26 12:36:47;;;;;;;13.90;7.47;;;6.20;99.90;;;;;;5075845;28;20044;-71
2021/11/26 12:39:18;;;;;;;11.10;7.50;;;6.10;99.90;;;;;;5074688;28;20049;-71
2021/11/26 12:41:47;;;;;;;11.17;7.07;;;6.10;99.90;;;;;;5074748;28;20072;-73
2021/11/26 12:44:19;;;;;;;12.33;8.27;;;6.00;99.90;;;;;;5074072;28;20563;-71
2021/11/26 12:46:47;;;;;;;15.30;7.70;;;6.00;99.90;;;;;;5074575;28;20102;-72
2021/11/26 12:52:06;;;;;;;17.27;8.00;;;5.90;99.90;;;;;;5074450;28;20071;-70
2021/11/26 12:54:37;;;;;;;15.60;6.93;;;5.90;99.90;;;;;;5074001;28;20044;-74
2021/11/26 12:57:09;;;;;;;12.67;6.87;;;6.00;99.90;;;;;;5074375;28;20063;-73
2021/11/26 12:59:42;;;;;;;24.67;6.53;;;6.20;99.90;;;;;;5074151;28;20468;-72
2021/11/26 13:02:11;;;;;;;12.43;6.83;;;6.30;99.90;;;;;;5074375;28;20047;-73